Whitesburg, GA (30185)

1:20 PM EDT on July 06, 2015 (GMT -0400)
Lyons Landing - 5GA2 | | Change Station
CLOSE
Current Station
Personal Weather Station
Location: Carrollton, GA
Elevation: 1070 ft
Nearby Weather Stations

Elev 1070 ft 33.58 °N, 84.91 °W | Updated 1 second ago

Overcast
Overcast
82.3 °F
Feels Like 87 °F
N
0.0
Wind Variable Wind from SW
Gusts 4.0 mph

Today
High -- | Low -- °F
--% Chance of Precip.
Yesterday
High -- | Low -- °F
Precip. -- in
6:35 AM 8:53 PM
Waning Gibbous, 74% visible
Pressure 30.22 in
Visibility 10.0 miles
Clouds Scattered Clouds 2600 ft
Mostly Cloudy 3200 ft
Mostly Cloudy 6000 ft
Heat Index 87 °F
Dew Point 72 °F
Humidity 72%
Rainfall 0.02 in
Snow Depth Not available.
UV 7 out of 12
Pollen 3.20 out of 12
Air Quality Not available.
Flu Activity Not available.
METAR KCTJ 061715Z AUTO 21004KT 10SM SCT026 BKN032 BKN060 27/22 A3022 RMK AO2 T02740216

More Conditions Fewer Conditions

Pressure 30.22 in
Visibility 10.0 miles
Clouds Scattered Clouds 2600 ft
Mostly Cloudy 3200 ft
Mostly Cloudy 6000 ft
Heat Index 87 °F
Dew Point 72 °F
Humidity 72%
Rainfall 0.02 in
Snow Depth Not available.
UV 7 out of 12
Pollen 3.20 out of 12
Air Quality Not available.
Flu Activity Not available.
METAR KCTJ 061715Z AUTO 21004KT 10SM SCT026 BKN032 BKN060 27/22 A3022 RMK AO2 T02740216

More Conditions Fewer Conditions

10-Day Weather Forecast

×

Almanac

Astronomy

Jul. 06, 2015 Rise Set
Actual Time
Civil Twilight
Nautical Twilight
Astronomical Twilight
Moon
Length of Visible Light
Length of Day
Tomorrow will be .
, % of the Moon is Illuminated

Today's Extremes

State Highs State Lows

Community

WunderPhotos

Upload Photos

1,835,604 photos uploaded!

WunderBlogs® & News

Nearby

Air Quality

  Air Quality AQ Index Pollutant
Not available.

Snow Depth

Station Depth Elevation

Earthquake Activity

City Distance Mag. Time & Date
Minimum magnitude displayed is 2.5.

Coastal Water Temperatures

Place Temperature

Stations

Nearby Weather Stations

Station Location Temp. Windchill Dew Point Humidity Wind Precip. Elev Updated Type